sensor_id;sensor_type;location;lat;lon;timestamp;P1;durP1;ratioP1;P2;durP2;ratioP2
50161;SDS011;36061;48.116;11.612;2023-05-27T00:00:53;9.77;;;5.93;;
50161;SDS011;36061;48.116;11.612;2023-05-27T00:03:20;8.20;;;5.80;;
50161;SDS011;36061;48.116;11.612;2023-05-27T00:05:47;10.10;;;6.17;;
50161;SDS011;36061;48.116;11.612;2023-05-27T00:08:15;6.77;;;5.40;;
50161;SDS011;36061;48.116;11.612;2023-05-27T00:10:42;12.37;;;5.13;;
50161;SDS011;36061;48.116;11.612;2023-05-27T00:13:11;7.33;;;5.90;;
50161;SDS011;36061;48.116;11.612;2023-05-27T00:15:39;8.70;;;5.30;;
50161;SDS011;36061;48.116;11.612;2023-05-27T00:18:07;8.40;;;5.27;;
50161;SDS011;36061;48.116;11.612;2023-05-27T00:20:34;10.23;;;5.67;;
50161;SDS011;36061;48.116;11.612;2023-05-27T00:23:01;9.03;;;6.53;;
50161;SDS011;36061;48.116;11.612;2023-05-27T00:25:29;9.43;;;5.63;;
50161;SDS011;36061;48.116;11.612;2023-05-27T00:27:56;9.97;;;5.60;;
50161;SDS011;36061;48.116;11.612;2023-05-27T00:30:26;7.80;;;5.63;;
50161;SDS011;36061;48.116;11.612;2023-05-27T00:32:53;9.07;;;5.93;;
50161;SDS011;36061;48.116;11.612;2023-05-27T00:35:21;7.57;;;6.77;;
50161;SDS011;36061;48.116;11.612;2023-05-27T00:37:48;10.67;;;6.13;;
50161;SDS011;36061;48.116;11.612;2023-05-27T00:40:16;9.33;;;6.00;;
50161;SDS011;36061;48.116;11.612;2023-05-27T00:42:48;10.53;;;6.23;;
50161;SDS011;36061;48.116;11.612;2023-05-27T00:45:15;7.20;;;5.80;;
50161;SDS011;36061;48.116;11.612;2023-05-27T00:47:44;10.90;;;5.80;;
50161;SDS011;36061;48.116;11.612;2023-05-27T00:50:11;9.13;;;5.90;;
50161;SDS011;36061;48.116;11.612;2023-05-27T00:52:39;9.43;;;6.23;;
50161;SDS011;36061;48.116;11.612;2023-05-27T00:55:07;11.87;;;6.77;;
50161;SDS011;36061;48.116;11.612;2023-05-27T00:57:36;10.37;;;6.20;;
50161;SDS011;36061;48.116;11.612;2023-05-27T01:00:03;11.13;;;6.03;;
50161;SDS011;36061;48.116;11.612;2023-05-27T01:02:35;9.13;;;6.33;;
50161;SDS011;36061;48.116;11.612;2023-05-27T01:05:07;8.73;;;6.40;;
50161;SDS011;36061;48.116;11.612;2023-05-27T01:07:37;12.97;;;5.97;;
50161;SDS011;36061;48.116;11.612;2023-05-27T01:10:13;8.63;;;5.67;;
50161;SDS011;36061;48.116;11.612;2023-05-27T01:12:44;10.83;;;5.80;;
50161;SDS011;36061;48.116;11.612;2023-05-27T01:15:17;8.57;;;5.73;;
50161;SDS011;36061;48.116;11.612;2023-05-27T01:17:45;10.67;;;6.90;;
50161;SDS011;36061;48.116;11.612;2023-05-27T01:20:15;7.10;;;5.90;;
50161;SDS011;36061;48.116;11.612;2023-05-27T01:22:44;8.00;;;5.90;;
50161;SDS011;36061;48.116;11.612;2023-05-27T01:25:17;8.50;;;5.73;;
50161;SDS011;36061;48.116;11.612;2023-05-27T01:27:45;9.27;;;5.77;;
50161;SDS011;36061;48.116;11.612;2023-05-27T01:30:13;11.97;;;6.60;;
50161;SDS011;36061;48.116;11.612;2023-05-27T01:32:41;9.70;;;6.80;;
50161;SDS011;36061;48.116;11.612;2023-05-27T01:35:14;8.57;;;6.43;;
50161;SDS011;36061;48.116;11.612;2023-05-27T01:37:48;9.53;;;6.00;;
50161;SDS011;36061;48.116;11.612;2023-05-27T01:40:19;9.10;;;5.93;;
50161;SDS011;36061;48.116;11.612;2023-05-27T01:42:47;11.60;;;6.93;;
50161;SDS011;36061;48.116;11.612;2023-05-27T01:45:15;7.53;;;6.00;;
50161;SDS011;36061;48.116;11.612;2023-05-27T01:47:43;9.30;;;6.07;;
50161;SDS011;36061;48.116;11.612;2023-05-27T01:50:10;8.90;;;6.37;;
50161;SDS011;36061;48.116;11.612;2023-05-27T01:52:37;9.27;;;6.53;;
50161;SDS011;36061;48.116;11.612;2023-05-27T01:55:07;8.67;;;6.10;;
50161;SDS011;36061;48.116;11.612;2023-05-27T01:57:35;8.47;;;6.47;;
50161;SDS011;36061;48.116;11.612;2023-05-27T02:00:04;8.40;;;5.80;;
50161;SDS011;36061;48.116;11.612;2023-05-27T02:02:42;9.93;;;6.53;;
50161;SDS011;36061;48.116;11.612;2023-05-27T02:05:12;13.27;;;7.07;;
50161;SDS011;36061;48.116;11.612;2023-05-27T02:07:40;8.70;;;6.27;;
50161;SDS011;36061;48.116;11.612;2023-05-27T02:10:09;8.93;;;6.67;;
50161;SDS011;36061;48.116;11.612;2023-05-27T02:12:37;9.57;;;7.40;;
50161;SDS011;36061;48.116;11.612;2023-05-27T02:15:05;8.30;;;6.50;;
50161;SDS011;36061;48.116;11.612;2023-05-27T02:17:33;8.50;;;5.67;;
50161;SDS011;36061;48.116;11.612;2023-05-27T02:20:00;10.10;;;7.20;;
50161;SDS011;36061;48.116;11.612;2023-05-27T02:22:29;10.13;;;6.57;;
50161;SDS011;36061;48.116;11.612;2023-05-27T02:24:56;7.90;;;6.53;;
50161;SDS011;36061;48.116;11.612;2023-05-27T02:27:25;9.37;;;5.67;;
50161;SDS011;36061;48.116;11.612;2023-05-27T02:29:52;11.53;;;6.93;;
50161;SDS011;36061;48.116;11.612;2023-05-27T02:32:19;9.93;;;6.47;;
50161;SDS011;36061;48.116;11.612;2023-05-27T02:34:46;10.10;;;6.83;;
50161;SDS011;36061;48.116;11.612;2023-05-27T02:37:14;11.40;;;7.27;;
50161;SDS011;36061;48.116;11.612;2023-05-27T02:39:42;9.93;;;6.23;;
50161;SDS011;36061;48.116;11.612;2023-05-27T02:42:09;9.60;;;6.33;;
50161;SDS011;36061;48.116;11.612;2023-05-27T02:44:38;11.20;;;6.73;;
50161;SDS011;36061;48.116;11.612;2023-05-27T02:47:06;8.60;;;5.40;;
50161;SDS011;36061;48.116;11.612;2023-05-27T02:49:34;12.63;;;6.63;;
50161;SDS011;36061;48.116;11.612;2023-05-27T02:52:01;7.90;;;6.40;;
50161;SDS011;36061;48.116;11.612;2023-05-27T02:54:28;8.10;;;6.87;;
50161;SDS011;36061;48.116;11.612;2023-05-27T02:56:55;10.13;;;6.43;;
50161;SDS011;36061;48.116;11.612;2023-05-27T02:59:22;10.43;;;7.00;;
50161;SDS011;36061;48.116;11.612;2023-05-27T03:01:51;10.10;;;6.37;;
50161;SDS011;36061;48.116;11.612;2023-05-27T03:04:18;13.20;;;6.87;;
50161;SDS011;36061;48.116;11.612;2023-05-27T03:06:46;8.30;;;6.50;;
50161;SDS011;36061;48.116;11.612;2023-05-27T03:09:14;11.77;;;6.93;;
50161;SDS011;36061;48.116;11.612;2023-05-27T03:11:42;11.00;;;6.63;;
50161;SDS011;36061;48.116;11.612;2023-05-27T03:14:10;10.53;;;6.33;;
50161;SDS011;36061;48.116;11.612;2023-05-27T03:16:37;8.90;;;7.17;;
50161;SDS011;36061;48.116;11.612;2023-05-27T03:19:06;10.17;;;6.47;;
50161;SDS011;36061;48.116;11.612;2023-05-27T03:21:34;8.70;;;6.30;;
50161;SDS011;36061;48.116;11.612;2023-05-27T03:24:01;8.50;;;6.73;;
50161;SDS011;36061;48.116;11.612;2023-05-27T03:26:29;11.00;;;6.97;;
50161;SDS011;36061;48.116;11.612;2023-05-27T03:28:58;10.47;;;6.17;;
50161;SDS011;36061;48.116;11.612;2023-05-27T03:31:25;11.43;;;7.00;;
50161;SDS011;36061;48.116;11.612;2023-05-27T03:34:01;9.90;;;6.90;;
50161;SDS011;36061;48.116;11.612;2023-05-27T03:36:30;9.20;;;6.27;;
50161;SDS011;36061;48.116;11.612;2023-05-27T03:38:58;8.97;;;5.87;;
50161;SDS011;36061;48.116;11.612;2023-05-27T03:41:27;12.87;;;6.80;;
50161;SDS011;36061;48.116;11.612;2023-05-27T03:43:54;11.77;;;7.07;;
50161;SDS011;36061;48.116;11.612;2023-05-27T03:46:22;12.53;;;6.77;;
50161;SDS011;36061;48.116;11.612;2023-05-27T03:48:49;11.83;;;5.87;;
50161;SDS011;36061;48.116;11.612;2023-05-27T03:51:16;12.27;;;6.93;;
50161;SDS011;36061;48.116;11.612;2023-05-27T03:53:45;11.60;;;6.47;;
50161;SDS011;36061;48.116;11.612;2023-05-27T03:56:13;9.30;;;6.87;;
50161;SDS011;36061;48.116;11.612;2023-05-27T03:58:40;9.47;;;7.17;;
50161;SDS011;36061;48.116;11.612;2023-05-27T04:01:08;10.57;;;6.20;;
50161;SDS011;36061;48.116;11.612;2023-05-27T04:03:35;10.27;;;6.53;;
50161;SDS011;36061;48.116;11.612;2023-05-27T04:06:03;7.87;;;5.87;;
50161;SDS011;36061;48.116;11.612;2023-05-27T04:08:31;8.70;;;5.93;;
50161;SDS011;36061;48.116;11.612;2023-05-27T04:10:59;9.37;;;6.20;;
50161;SDS011;36061;48.116;11.612;2023-05-27T04:13:27;9.53;;;6.43;;
50161;SDS011;36061;48.116;11.612;2023-05-27T04:15:54;7.57;;;5.53;;
50161;SDS011;36061;48.116;11.612;2023-05-27T04:18:22;9.70;;;6.50;;
50161;SDS011;36061;48.116;11.612;2023-05-27T04:20:50;10.67;;;6.73;;
50161;SDS011;36061;48.116;11.612;2023-05-27T04:23:18;9.13;;;6.40;;
50161;SDS011;36061;48.116;11.612;2023-05-27T04:25:45;10.60;;;6.90;;
50161;SDS011;36061;48.116;11.612;2023-05-27T04:28:15;9.37;;;6.13;;
50161;SDS011;36061;48.116;11.612;2023-05-27T04:30:45;11.17;;;6.40;;
50161;SDS011;36061;48.116;11.612;2023-05-27T04:33:26;9.40;;;6.10;;
50161;SDS011;36061;48.116;11.612;2023-05-27T04:35:53;12.47;;;6.27;;
50161;SDS011;36061;48.116;11.612;2023-05-27T04:38:22;10.33;;;6.73;;
50161;SDS011;36061;48.116;11.612;2023-05-27T04:40:54;7.43;;;5.77;;
50161;SDS011;36061;48.116;11.612;2023-05-27T04:43:43;9.53;;;5.93;;
50161;SDS011;36061;48.116;11.612;2023-05-27T04:46:14;9.90;;;5.80;;
50161;SDS011;36061;48.116;11.612;2023-05-27T04:48:42;8.40;;;5.53;;
50161;SDS011;36061;48.116;11.612;2023-05-27T04:51:11;12.17;;;6.93;;
50161;SDS011;36061;48.116;11.612;2023-05-27T04:53:41;8.57;;;5.80;;
50161;SDS011;36061;48.116;11.612;2023-05-27T04:56:09;10.40;;;6.13;;
50161;SDS011;36061;48.116;11.612;2023-05-27T04:58:40;8.07;;;6.27;;
50161;SDS011;36061;48.116;11.612;2023-05-27T05:01:10;7.37;;;5.67;;
50161;SDS011;36061;48.116;11.612;2023-05-27T05:03:44;8.93;;;4.90;;
50161;SDS011;36061;48.116;11.612;2023-05-27T05:06:19;6.63;;;4.83;;
50161;SDS011;36061;48.116;11.612;2023-05-27T05:08:47;7.03;;;5.50;;
50161;SDS011;36061;48.116;11.612;2023-05-27T05:11:15;6.73;;;5.40;;
50161;SDS011;36061;48.116;11.612;2023-05-27T05:13:42;6.67;;;5.37;;
50161;SDS011;36061;48.116;11.612;2023-05-27T05:16:13;8.10;;;5.07;;
50161;SDS011;36061;48.116;11.612;2023-05-27T05:18:41;6.77;;;5.47;;
50161;SDS011;36061;48.116;11.612;2023-05-27T05:21:09;7.87;;;5.53;;
50161;SDS011;36061;48.116;11.612;2023-05-27T05:23:39;9.03;;;5.43;;
50161;SDS011;36061;48.116;11.612;2023-05-27T05:26:08;7.87;;;4.90;;
50161;SDS011;36061;48.116;11.612;2023-05-27T05:28:39;8.13;;;5.93;;
50161;SDS011;36061;48.116;11.612;2023-05-27T05:31:08;13.60;;;5.67;;
50161;SDS011;36061;48.116;11.612;2023-05-27T05:33:37;8.77;;;5.37;;
50161;SDS011;36061;48.116;11.612;2023-05-27T05:36:06;11.77;;;4.87;;
50161;SDS011;36061;48.116;11.612;2023-05-27T05:38:47;8.20;;;5.27;;
50161;SDS011;36061;48.116;11.612;2023-05-27T05:41:14;10.33;;;5.50;;
50161;SDS011;36061;48.116;11.612;2023-05-27T05:43:43;8.20;;;4.60;;
50161;SDS011;36061;48.116;11.612;2023-05-27T05:46:10;7.03;;;3.90;;
50161;SDS011;36061;48.116;11.612;2023-05-27T05:48:39;7.60;;;4.80;;
50161;SDS011;36061;48.116;11.612;2023-05-27T05:51:09;8.70;;;4.40;;
50161;SDS011;36061;48.116;11.612;2023-05-27T05:53:39;8.63;;;5.03;;
50161;SDS011;36061;48.116;11.612;2023-05-27T05:56:07;7.70;;;4.87;;
50161;SDS011;36061;48.116;11.612;2023-05-27T05:58:34;6.53;;;4.70;;
50161;SDS011;36061;48.116;11.612;2023-05-27T06:01:02;7.97;;;5.07;;
50161;SDS011;36061;48.116;11.612;2023-05-27T06:03:35;8.80;;;4.67;;
50161;SDS011;36061;48.116;11.612;2023-05-27T06:06:06;9.30;;;4.33;;
50161;SDS011;36061;48.116;11.612;2023-05-27T06:08:46;9.53;;;5.07;;
50161;SDS011;36061;48.116;11.612;2023-05-27T06:11:15;9.20;;;4.83;;
50161;SDS011;36061;48.116;11.612;2023-05-27T06:13:43;6.13;;;4.30;;
50161;SDS011;36061;48.116;11.612;2023-05-27T06:16:13;9.83;;;5.30;;
50161;SDS011;36061;48.116;11.612;2023-05-27T06:18:40;8.23;;;4.17;;
50161;SDS011;36061;48.116;11.612;2023-05-27T06:21:13;8.30;;;4.47;;
50161;SDS011;36061;48.116;11.612;2023-05-27T06:24:06;6.83;;;4.23;;
50161;SDS011;36061;48.116;11.612;2023-05-27T06:26:37;8.43;;;4.30;;
50161;SDS011;36061;48.116;11.612;2023-05-27T06:29:04;7.27;;;4.70;;
50161;SDS011;36061;48.116;11.612;2023-05-27T06:31:31;6.00;;;4.30;;
50161;SDS011;36061;48.116;11.612;2023-05-27T06:33:59;13.73;;;5.83;;
50161;SDS011;36061;48.116;11.612;2023-05-27T06:36:28;11.27;;;4.67;;
50161;SDS011;36061;48.116;11.612;2023-05-27T06:38:55;8.30;;;3.67;;
50161;SDS011;36061;48.116;11.612;2023-05-27T06:41:24;8.53;;;4.43;;
50161;SDS011;36061;48.116;11.612;2023-05-27T06:44:14;6.43;;;3.80;;
50161;SDS011;36061;48.116;11.612;2023-05-27T06:46:56;7.30;;;3.93;;
50161;SDS011;36061;48.116;11.612;2023-05-27T06:49:28;8.17;;;4.60;;
50161;SDS011;36061;48.116;11.612;2023-05-27T06:52:00;7.43;;;4.37;;
50161;SDS011;36061;48.116;11.612;2023-05-27T06:54:29;9.33;;;4.20;;
50161;SDS011;36061;48.116;11.612;2023-05-27T06:57:15;7.50;;;3.83;;
50161;SDS011;36061;48.116;11.612;2023-05-27T06:59:52;7.90;;;3.93;;
50161;SDS011;36061;48.116;11.612;2023-05-27T07:02:19;7.30;;;4.03;;
50161;SDS011;36061;48.116;11.612;2023-05-27T07:04:46;7.70;;;3.90;;
50161;SDS011;36061;48.116;11.612;2023-05-27T07:07:15;5.57;;;3.20;;
50161;SDS011;36061;48.116;11.612;2023-05-27T07:09:42;7.67;;;3.60;;
50161;SDS011;36061;48.116;11.612;2023-05-27T07:12:10;8.00;;;4.23;;
50161;SDS011;36061;48.116;11.612;2023-05-27T07:14:50;6.30;;;3.73;;
50161;SDS011;36061;48.116;11.612;2023-05-27T07:17:19;7.87;;;4.10;;
50161;SDS011;36061;48.116;11.612;2023-05-27T07:19:47;5.90;;;3.90;;
50161;SDS011;36061;48.116;11.612;2023-05-27T07:22:19;6.47;;;3.60;;
50161;SDS011;36061;48.116;11.612;2023-05-27T07:24:47;7.60;;;3.50;;
50161;SDS011;36061;48.116;11.612;2023-05-27T07:27:14;6.53;;;3.13;;
50161;SDS011;36061;48.116;11.612;2023-05-27T07:29:50;8.60;;;3.53;;
50161;SDS011;36061;48.116;11.612;2023-05-27T07:32:32;6.97;;;3.53;;
50161;SDS011;36061;48.116;11.612;2023-05-27T07:35:00;9.37;;;3.80;;
50161;SDS011;36061;48.116;11.612;2023-05-27T07:37:28;10.73;;;3.77;;
50161;SDS011;36061;48.116;11.612;2023-05-27T07:39:56;9.13;;;3.57;;
50161;SDS011;36061;48.116;11.612;2023-05-27T07:42:23;6.03;;;3.70;;
50161;SDS011;36061;48.116;11.612;2023-05-27T07:44:51;7.33;;;3.37;;
50161;SDS011;36061;48.116;11.612;2023-05-27T07:47:19;8.30;;;4.10;;
50161;SDS011;36061;48.116;11.612;2023-05-27T07:49:48;8.10;;;3.23;;
50161;SDS011;36061;48.116;11.612;2023-05-27T07:52:36;10.40;;;3.77;;
50161;SDS011;36061;48.116;11.612;2023-05-27T07:55:15;8.83;;;3.50;;
50161;SDS011;36061;48.116;11.612;2023-05-27T07:57:43;6.57;;;3.80;;
50161;SDS011;36061;48.116;11.612;2023-05-27T08:00:12;6.43;;;3.87;;
50161;SDS011;36061;48.116;11.612;2023-05-27T08:02:51;7.30;;;3.73;;
50161;SDS011;36061;48.116;11.612;2023-05-27T08:05:23;7.00;;;3.60;;
50161;SDS011;36061;48.116;11.612;2023-05-27T08:08:18;6.90;;;3.93;;
50161;SDS011;36061;48.116;11.612;2023-05-27T08:11:04;5.60;;;3.43;;
50161;SDS011;36061;48.116;11.612;2023-05-27T08:13:49;7.17;;;4.20;;
50161;SDS011;36061;48.116;11.612;2023-05-27T08:16:52;7.87;;;3.67;;
50161;SDS011;36061;48.116;11.612;2023-05-27T08:19:39;7.57;;;3.30;;
50161;SDS011;36061;48.116;11.612;2023-05-27T08:22:26;7.50;;;3.60;;
50161;SDS011;36061;48.116;11.612;2023-05-27T08:25:14;17.57;;;4.37;;
50161;SDS011;36061;48.116;11.612;2023-05-27T08:27:56;8.37;;;4.33;;
50161;SDS011;36061;48.116;11.612;2023-05-27T08:30:46;10.47;;;3.70;;
50161;SDS011;36061;48.116;11.612;2023-05-27T08:33:20;9.83;;;4.00;;
50161;SDS011;36061;48.116;11.612;2023-05-27T08:35:49;9.20;;;4.03;;
50161;SDS011;36061;48.116;11.612;2023-05-27T08:38:16;7.03;;;3.33;;
50161;SDS011;36061;48.116;11.612;2023-05-27T08:40:45;9.87;;;4.60;;
50161;SDS011;36061;48.116;11.612;2023-05-27T08:43:13;6.17;;;3.67;;
50161;SDS011;36061;48.116;11.612;2023-05-27T08:45:44;14.23;;;4.17;;
50161;SDS011;36061;48.116;11.612;2023-05-27T08:48:11;8.27;;;3.77;;
50161;SDS011;36061;48.116;11.612;2023-05-27T08:50:40;7.27;;;4.30;;
50161;SDS011;36061;48.116;11.612;2023-05-27T08:53:08;8.33;;;3.83;;
50161;SDS011;36061;48.116;11.612;2023-05-27T08:55:36;9.53;;;4.30;;
50161;SDS011;36061;48.116;11.612;2023-05-27T08:58:07;8.50;;;4.37;;
50161;SDS011;36061;48.116;11.612;2023-05-27T09:00:41;8.97;;;4.13;;
50161;SDS011;36061;48.116;11.612;2023-05-27T09:03:17;8.67;;;4.23;;
50161;SDS011;36061;48.116;11.612;2023-05-27T09:05:45;13.67;;;4.13;;
50161;SDS011;36061;48.116;11.612;2023-05-27T09:08:12;7.40;;;3.83;;
50161;SDS011;36061;48.116;11.612;2023-05-27T09:10:40;10.03;;;4.53;;
50161;SDS011;36061;48.116;11.612;2023-05-27T09:13:10;6.40;;;3.90;;
50161;SDS011;36061;48.116;11.612;2023-05-27T09:15:37;9.53;;;4.13;;
50161;SDS011;36061;48.116;11.612;2023-05-27T09:18:05;7.83;;;4.10;;
50161;SDS011;36061;48.116;11.612;2023-05-27T09:20:32;8.77;;;4.30;;
50161;SDS011;36061;48.116;11.612;2023-05-27T09:23:00;11.00;;;4.30;;
50161;SDS011;36061;48.116;11.612;2023-05-27T09:25:28;8.97;;;4.10;;
50161;SDS011;36061;48.116;11.612;2023-05-27T09:27:56;9.37;;;4.20;;
50161;SDS011;36061;48.116;11.612;2023-05-27T09:30:24;6.47;;;4.00;;
50161;SDS011;36061;48.116;11.612;2023-05-27T09:32:59;8.03;;;4.43;;
50161;SDS011;36061;48.116;11.612;2023-05-27T09:35:28;6.50;;;4.23;;
50161;SDS011;36061;48.116;11.612;2023-05-27T09:38:04;6.60;;;4.03;;
50161;SDS011;36061;48.116;11.612;2023-05-27T09:40:32;10.33;;;4.73;;
50161;SDS011;36061;48.116;11.612;2023-05-27T09:43:01;7.97;;;4.60;;
50161;SDS011;36061;48.116;11.612;2023-05-27T09:45:31;9.13;;;4.97;;
50161;SDS011;36061;48.116;11.612;2023-05-27T09:47:59;8.07;;;5.00;;
50161;SDS011;36061;48.116;11.612;2023-05-27T09:50:28;9.63;;;4.50;;
50161;SDS011;36061;48.116;11.612;2023-05-27T09:52:57;8.70;;;4.30;;
50161;SDS011;36061;48.116;11.612;2023-05-27T09:55:26;9.90;;;4.93;;
50161;SDS011;36061;48.116;11.612;2023-05-27T09:57:55;7.67;;;4.10;;
50161;SDS011;36061;48.116;11.612;2023-05-27T10:00:22;8.27;;;4.03;;
50161;SDS011;36061;48.116;11.612;2023-05-27T10:02:53;9.67;;;4.63;;
50161;SDS011;36061;48.116;11.612;2023-05-27T10:05:22;10.03;;;5.00;;
50161;SDS011;36061;48.116;11.612;2023-05-27T10:07:50;8.13;;;4.63;;
50161;SDS011;36061;48.116;11.612;2023-05-27T10:10:18;13.00;;;4.90;;
50161;SDS011;36061;48.116;11.612;2023-05-27T10:12:46;11.57;;;5.17;;
50161;SDS011;36061;48.116;11.612;2023-05-27T10:15:23;10.00;;;4.47;;
50161;SDS011;36061;48.116;11.612;2023-05-27T10:17:54;6.73;;;4.87;;
50161;SDS011;36061;48.116;11.612;2023-05-27T10:20:29;10.20;;;4.80;;
50161;SDS011;36061;48.116;11.612;2023-05-27T10:22:57;9.87;;;4.60;;
50161;SDS011;36061;48.116;11.612;2023-05-27T10:25:37;8.23;;;4.50;;
50161;SDS011;36061;48.116;11.612;2023-05-27T10:28:05;9.63;;;4.40;;
50161;SDS011;36061;48.116;11.612;2023-05-27T10:30:42;7.33;;;4.03;;
50161;SDS011;36061;48.116;11.612;2023-05-27T10:33:11;10.43;;;4.07;;
50161;SDS011;36061;48.116;11.612;2023-05-27T10:35:39;7.27;;;3.93;;
50161;SDS011;36061;48.116;11.612;2023-05-27T10:38:14;7.77;;;3.60;;
50161;SDS011;36061;48.116;11.612;2023-05-27T10:40:43;7.30;;;4.20;;
50161;SDS011;36061;48.116;11.612;2023-05-27T10:43:15;4.93;;;3.70;;
50161;SDS011;36061;48.116;11.612;2023-05-27T10:45:42;7.30;;;4.20;;
50161;SDS011;36061;48.116;11.612;2023-05-27T10:48:19;8.33;;;4.30;;
50161;SDS011;36061;48.116;11.612;2023-05-27T10:50:49;7.50;;;3.70;;
50161;SDS011;36061;48.116;11.612;2023-05-27T10:53:18;7.30;;;4.33;;
50161;SDS011;36061;48.116;11.612;2023-05-27T10:55:47;8.87;;;3.93;;
50161;SDS011;36061;48.116;11.612;2023-05-27T10:58:16;11.83;;;5.17;;
50161;SDS011;36061;48.116;11.612;2023-05-27T11:00:43;9.90;;;4.17;;
50161;SDS011;36061;48.116;11.612;2023-05-27T11:03:23;8.07;;;4.13;;
50161;SDS011;36061;48.116;11.612;2023-05-27T11:06:01;7.50;;;4.07;;
50161;SDS011;36061;48.116;11.612;2023-05-27T11:08:30;6.23;;;3.97;;
50161;SDS011;36061;48.116;11.612;2023-05-27T11:10:59;12.50;;;4.27;;
50161;SDS011;36061;48.116;11.612;2023-05-27T11:13:30;8.73;;;4.90;;
50161;SDS011;36061;48.116;11.612;2023-05-27T11:15:59;8.33;;;4.27;;
50161;SDS011;36061;48.116;11.612;2023-05-27T11:18:35;8.13;;;3.63;;
50161;SDS011;36061;48.116;11.612;2023-05-27T11:21:03;10.13;;;4.07;;
50161;SDS011;36061;48.116;11.612;2023-05-27T11:23:33;8.27;;;4.40;;
50161;SDS011;36061;48.116;11.612;2023-05-27T11:26:12;9.43;;;3.83;;
50161;SDS011;36061;48.116;11.612;2023-05-27T11:28:47;5.50;;;3.53;;
50161;SDS011;36061;48.116;11.612;2023-05-27T11:31:16;7.73;;;3.43;;
50161;SDS011;36061;48.116;11.612;2023-05-27T11:33:46;7.57;;;3.50;;
50161;SDS011;36061;48.116;11.612;2023-05-27T11:36:16;6.90;;;3.60;;
50161;SDS011;36061;48.116;11.612;2023-05-27T11:38:48;5.27;;;3.17;;
50161;SDS011;36061;48.116;11.612;2023-05-27T11:41:16;6.33;;;3.43;;
50161;SDS011;36061;48.116;11.612;2023-05-27T11:43:50;7.00;;;3.43;;
50161;SDS011;36061;48.116;11.612;2023-05-27T11:46:21;6.90;;;3.67;;
50161;SDS011;36061;48.116;11.612;2023-05-27T11:48:50;7.57;;;3.50;;
50161;SDS011;36061;48.116;11.612;2023-05-27T11:51:25;6.20;;;3.03;;
50161;SDS011;36061;48.116;11.612;2023-05-27T11:53:54;6.20;;;3.77;;
50161;SDS011;36061;48.116;11.612;2023-05-27T11:56:21;7.27;;;4.10;;
50161;SDS011;36061;48.116;11.612;2023-05-27T11:58:50;5.97;;;3.40;;
50161;SDS011;36061;48.116;11.612;2023-05-27T12:01:17;5.07;;;3.43;;
50161;SDS011;36061;48.116;11.612;2023-05-27T12:03:45;5.90;;;3.27;;
50161;SDS011;36061;48.116;11.612;2023-05-27T12:06:13;9.87;;;3.43;;
50161;SDS011;36061;48.116;11.612;2023-05-27T12:08:41;7.27;;;3.33;;
50161;SDS011;36061;48.116;11.612;2023-05-27T12:11:08;7.13;;;3.60;;
50161;SDS011;36061;48.116;11.612;2023-05-27T12:13:36;5.83;;;3.37;;
50161;SDS011;36061;48.116;11.612;2023-05-27T12:16:03;6.57;;;3.27;;
50161;SDS011;36061;48.116;11.612;2023-05-27T12:18:31;5.77;;;3.30;;
50161;SDS011;36061;48.116;11.612;2023-05-27T12:20:58;7.67;;;3.40;;
50161;SDS011;36061;48.116;11.612;2023-05-27T12:23:26;5.53;;;2.97;;
50161;SDS011;36061;48.116;11.612;2023-05-27T12:25:54;5.77;;;3.37;;
50161;SDS011;36061;48.116;11.612;2023-05-27T12:28:21;11.53;;;3.50;;
50161;SDS011;36061;48.116;11.612;2023-05-27T12:30:48;7.60;;;3.47;;
50161;SDS011;36061;48.116;11.612;2023-05-27T12:33:15;5.30;;;3.40;;
50161;SDS011;36061;48.116;11.612;2023-05-27T12:35:42;8.20;;;4.47;;
50161;SDS011;36061;48.116;11.612;2023-05-27T12:38:10;8.10;;;3.40;;
50161;SDS011;36061;48.116;11.612;2023-05-27T12:40:38;5.47;;;3.40;;
50161;SDS011;36061;48.116;11.612;2023-05-27T12:43:05;7.40;;;3.80;;
50161;SDS011;36061;48.116;11.612;2023-05-27T12:45:33;7.20;;;3.47;;
50161;SDS011;36061;48.116;11.612;2023-05-27T12:48:00;7.03;;;3.33;;
50161;SDS011;36061;48.116;11.612;2023-05-27T12:50:27;5.83;;;3.60;;
50161;SDS011;36061;48.116;11.612;2023-05-27T12:52:55;6.07;;;3.67;;
50161;SDS011;36061;48.116;11.612;2023-05-27T12:55:23;5.00;;;3.00;;
50161;SDS011;36061;48.116;11.612;2023-05-27T12:57:52;6.83;;;3.33;;
50161;SDS011;36061;48.116;11.612;2023-05-27T13:00:19;5.80;;;3.40;;
50161;SDS011;36061;48.116;11.612;2023-05-27T13:02:47;8.40;;;3.50;;
50161;SDS011;36061;48.116;11.612;2023-05-27T13:05:14;3.30;;;2.97;;
50161;SDS011;36061;48.116;11.612;2023-05-27T13:07:52;6.97;;;3.33;;
50161;SDS011;36061;48.116;11.612;2023-05-27T13:10:21;5.27;;;3.33;;
50161;SDS011;36061;48.116;11.612;2023-05-27T13:12:49;7.23;;;3.70;;
50161;SDS011;36061;48.116;11.612;2023-05-27T13:15:17;7.33;;;3.47;;
50161;SDS011;36061;48.116;11.612;2023-05-27T13:17:45;8.37;;;2.93;;
50161;SDS011;36061;48.116;11.612;2023-05-27T13:20:13;6.87;;;2.87;;
50161;SDS011;36061;48.116;11.612;2023-05-27T13:22:41;7.47;;;3.40;;
50161;SDS011;36061;48.116;11.612;2023-05-27T13:25:09;4.83;;;3.30;;
50161;SDS011;36061;48.116;11.612;2023-05-27T13:27:37;6.03;;;3.33;;
50161;SDS011;36061;48.116;11.612;2023-05-27T13:30:07;5.60;;;3.43;;
50161;SDS011;36061;48.116;11.612;2023-05-27T13:32:37;5.63;;;3.00;;
50161;SDS011;36061;48.116;11.612;2023-05-27T13:35:05;5.80;;;3.27;;
50161;SDS011;36061;48.116;11.612;2023-05-27T13:37:32;8.23;;;3.30;;
50161;SDS011;36061;48.116;11.612;2023-05-27T13:39:59;5.60;;;3.73;;
50161;SDS011;36061;48.116;11.612;2023-05-27T13:42:26;5.90;;;3.40;;
50161;SDS011;36061;48.116;11.612;2023-05-27T13:44:54;7.07;;;3.17;;
50161;SDS011;36061;48.116;11.612;2023-05-27T13:47:21;6.03;;;3.60;;
50161;SDS011;36061;48.116;11.612;2023-05-27T13:49:49;6.53;;;3.07;;
50161;SDS011;36061;48.116;11.612;2023-05-27T13:52:17;4.17;;;2.80;;
50161;SDS011;36061;48.116;11.612;2023-05-27T13:54:44;5.80;;;3.10;;
50161;SDS011;36061;48.116;11.612;2023-05-27T13:57:11;6.47;;;3.20;;
50161;SDS011;36061;48.116;11.612;2023-05-27T13:59:38;6.40;;;3.30;;
50161;SDS011;36061;48.116;11.612;2023-05-27T14:02:06;8.43;;;3.77;;
50161;SDS011;36061;48.116;11.612;2023-05-27T14:04:34;7.80;;;3.17;;
50161;SDS011;36061;48.116;11.612;2023-05-27T14:07:03;8.13;;;3.60;;
50161;SDS011;36061;48.116;11.612;2023-05-27T14:09:30;6.17;;;3.00;;
50161;SDS011;36061;48.116;11.612;2023-05-27T14:11:58;7.13;;;3.20;;
50161;SDS011;36061;48.116;11.612;2023-05-27T14:14:25;4.50;;;3.00;;
50161;SDS011;36061;48.116;11.612;2023-05-27T14:16:52;5.30;;;2.90;;
50161;SDS011;36061;48.116;11.612;2023-05-27T14:19:20;5.63;;;2.93;;
50161;SDS011;36061;48.116;11.612;2023-05-27T14:21:48;5.43;;;3.47;;
50161;SDS011;36061;48.116;11.612;2023-05-27T14:24:16;6.33;;;2.70;;
50161;SDS011;36061;48.116;11.612;2023-05-27T14:26:43;5.27;;;3.00;;
50161;SDS011;36061;48.116;11.612;2023-05-27T14:29:11;9.63;;;3.20;;
50161;SDS011;36061;48.116;11.612;2023-05-27T14:31:38;4.97;;;3.00;;
50161;SDS011;36061;48.116;11.612;2023-05-27T14:34:05;5.00;;;2.80;;
50161;SDS011;36061;48.116;11.612;2023-05-27T14:36:32;5.83;;;3.33;;
50161;SDS011;36061;48.116;11.612;2023-05-27T14:39:00;6.77;;;3.20;;
50161;SDS011;36061;48.116;11.612;2023-05-27T14:41:32;5.90;;;3.00;;
50161;SDS011;36061;48.116;11.612;2023-05-27T14:43:59;6.53;;;3.13;;
50161;SDS011;36061;48.116;11.612;2023-05-27T14:46:26;3.83;;;2.70;;